We Are Winnipeg.

Screenshot by Tavis Harrison

Come explore the heart of Canada.  

  Top Controllers this Month

Todd Blanchette 1386032
33:39

James Norris 1405159
33:06

Justin 984292
26:14

1480837
24:00

Tim Lowe 1501600
20:31

  Online Controllers

No controllers online.

  Weather

CYWG - Winnipeg / James Armstrong Richardson International Airport   VFR
CYWG 210000Z 30003KT 10SM -SHSN FEW032 BKN040 BKN060TCU M02/M03 A3020 RMK CU1SC5TCU1 VIS E LWR, CVCTV CLD EMBD SLP243

CYXE - Saskatoon John G. Diefenbaker International Airport   VFR
CYXE 210000Z 31008KT 240V320 15SM FEW260 10/M12 A3021 RMK CI2 SLP262

CYQT - Thunder Bay Airport   VFR
CYQT 210000Z 31005KT 20SM BKN055 M01/M10 A3010 RMK SC7 SLP210

CYQR - Regina International Airport   VFR
CYQR 210000Z 33013KT 15SM FEW064 FEW270 06/M10 A3024 RMK CU1CI1 CU TR CI TR SLP269

CYMJ - Moose Jaw Air Vice Marshal C. M. McEwen Airport   VFR
CYMJ 210000Z CCA 36007G16KT 15SM SCT250 07/M09 A3025 RMK CI3 LAST OBS/NEXT 211000 UTC SLP271

CYPG - Portage-la-Prairie / Southport Airport   VFR
CYPG 210000Z 34010G16KT 15SM VCSH FEW032 BKN066 00/M08 A3021 RMK CU1AC6 SLP247